createdAt,value
2018-03-31T00:00:57.990Z,939.55
2018-03-31T00:01:58.005Z,939.45
2018-03-31T00:02:58.022Z,939.54
2018-03-31T00:03:58.042Z,939.38
2018-03-31T00:04:58.057Z,939.49
2018-03-31T00:05:58.083Z,939.43
2018-03-31T00:06:58.095Z,939.41
2018-03-31T00:07:58.103Z,939.52
2018-03-31T00:08:58.119Z,939.46
2018-03-31T00:09:58.144Z,939.47
2018-03-31T00:10:58.158Z,939.49
2018-03-31T00:11:58.176Z,939.48
2018-03-31T00:12:58.189Z,939.52
2018-03-31T00:13:58.207Z,939.52
2018-03-31T00:14:58.221Z,939.54
2018-03-31T00:15:58.235Z,939.49
2018-03-31T00:16:58.250Z,939.42
2018-03-31T00:17:58.273Z,939.41
2018-03-31T00:18:58.284Z,939.36
2018-03-31T00:19:58.298Z,939.44
2018-03-31T00:20:58.316Z,939.4
2018-03-31T00:21:58.332Z,939.46
2018-03-31T00:22:58.348Z,939.38
2018-03-31T00:23:58.364Z,939.51
2018-03-31T00:24:58.381Z,939.56
2018-03-31T00:25:58.406Z,939.59
2018-03-31T00:26:58.414Z,939.64
2018-03-31T00:27:58.430Z,939.62
2018-03-31T00:28:58.446Z,939.63
2018-03-31T00:29:58.462Z,939.6
2018-03-31T00:30:58.479Z,939.62
2018-03-31T00:31:58.495Z,939.61
2018-03-31T00:32:58.513Z,939.56
2018-03-31T00:33:58.527Z,939.59
2018-03-31T00:34:58.544Z,939.6
2018-03-31T00:35:58.561Z,939.57
2018-03-31T00:36:58.578Z,939.67
2018-03-31T00:37:58.592Z,939.61
2018-03-31T00:38:58.671Z,939.71
2018-03-31T00:39:58.626Z,939.72
2018-03-31T00:40:58.693Z,939.65
2018-03-31T00:41:58.658Z,939.59
2018-03-31T00:42:58.674Z,939.61
2018-03-31T00:43:58.696Z,939.55
2018-03-31T00:44:58.707Z,939.53
2018-03-31T00:45:58.723Z,939.43
2018-03-31T00:46:58.739Z,939.48
2018-03-31T00:47:58.756Z,939.47
2018-03-31T00:48:58.772Z,939.43
2018-03-31T00:49:58.790Z,939.5
2018-03-31T00:50:58.806Z,939.5
2018-03-31T00:51:58.822Z,939.5
2018-03-31T00:52:58.838Z,939.49
2018-03-31T00:53:58.854Z,939.49
2018-03-31T00:54:58.871Z,939.43
2018-03-31T00:55:58.888Z,939.4
2018-03-31T00:56:58.904Z,939.44
2018-03-31T00:57:58.921Z,939.48
2018-03-31T00:58:58.941Z,939.53
2018-03-31T00:59:58.954Z,939.53
2018-03-31T01:00:58.969Z,939.53
2018-03-31T01:01:58.987Z,939.56
2018-03-31T01:02:59.025Z,939.47
2018-03-31T01:03:59.019Z,939.51
2018-03-31T01:04:59.034Z,939.55
2018-03-31T01:05:59.054Z,939.52
2018-03-31T01:06:59.068Z,939.53
2018-03-31T01:07:59.087Z,939.46
2018-03-31T01:08:59.101Z,939.47
2018-03-31T01:09:59.116Z,939.55
2018-03-31T01:10:59.134Z,939.48
2018-03-31T01:11:59.150Z,939.45
2018-03-31T01:12:59.168Z,939.49
2018-03-31T01:13:59.185Z,939.44
2018-03-31T01:14:59.198Z,939.44
2018-03-31T01:15:59.216Z,939.42
2018-03-31T01:16:59.232Z,939.4
2018-03-31T01:17:59.249Z,939.37
2018-03-31T01:18:59.265Z,939.38
2018-03-31T01:19:59.280Z,939.37
2018-03-31T01:20:59.295Z,939.36
2018-03-31T01:21:59.314Z,939.43
2018-03-31T01:22:59.330Z,939.46
2018-03-31T01:23:59.348Z,939.45
2018-03-31T01:24:59.375Z,939.44
2018-03-31T01:25:59.379Z,939.44
2018-03-31T01:26:59.397Z,939.34
2018-03-31T01:27:59.413Z,939.4
2018-03-31T01:28:59.430Z,939.41
2018-03-31T01:29:59.445Z,939.4
2018-03-31T01:30:59.463Z,939.37
2018-03-31T01:31:59.527Z,939.35
2018-03-31T01:32:59.491Z,939.4
2018-03-31T01:33:59.507Z,939.43
2018-03-31T01:34:59.524Z,939.44
2018-03-31T01:35:59.544Z,939.43
2018-03-31T01:36:59.561Z,939.45
2018-03-31T01:37:59.581Z,939.49
2018-03-31T01:38:59.593Z,939.49
2018-03-31T01:39:59.610Z,939.52
2018-03-31T01:40:59.626Z,939.48
2018-03-31T01:41:59.644Z,939.48
2018-03-31T01:42:59.661Z,939.48
2018-03-31T01:43:59.675Z,939.44
2018-03-31T01:44:59.692Z,939.46
2018-03-31T01:45:59.710Z,939.49
2018-03-31T01:46:59.779Z,939.47
2018-03-31T01:47:59.741Z,939.52
2018-03-31T01:48:59.759Z,939.5
2018-03-31T01:49:59.776Z,939.52
2018-03-31T01:50:59.791Z,939.52
2018-03-31T01:51:59.807Z,939.6
2018-03-31T01:52:59.825Z,939.56
2018-03-31T01:53:59.842Z,939.62
2018-03-31T01:54:59.857Z,939.63
2018-03-31T01:55:59.875Z,939.57
2018-03-31T01:56:59.893Z,939.6
2018-03-31T01:57:59.906Z,939.58
2018-03-31T01:58:59.921Z,939.57
2018-03-31T01:59:59.938Z,939.56
2018-03-31T02:00:59.955Z,939.59
2018-03-31T02:03:22.925Z,939.62
2018-03-31T02:04:22.940Z,939.56
2018-03-31T02:05:22.957Z,939.59
2018-03-31T02:06:22.974Z,939.55
2018-03-31T02:07:22.990Z,939.58
2018-03-31T02:08:23.005Z,939.6
2018-03-31T02:09:23.022Z,939.58
2018-03-31T02:10:23.037Z,939.57
2018-03-31T02:11:23.056Z,939.61
2018-03-31T02:12:23.077Z,939.59
2018-03-31T02:13:23.088Z,939.6
2018-03-31T02:14:23.105Z,939.57
2018-03-31T02:15:23.120Z,939.64
2018-03-31T02:16:23.136Z,939.59
2018-03-31T02:17:23.153Z,939.52
2018-03-31T02:18:23.219Z,939.55
2018-03-31T02:19:23.186Z,939.53
2018-03-31T02:20:23.201Z,939.5
2018-03-31T02:21:23.218Z,939.57
2018-03-31T02:22:23.235Z,939.53
2018-03-31T02:23:23.265Z,939.45
2018-03-31T02:24:23.267Z,939.5
2018-03-31T02:25:23.283Z,939.52
2018-03-31T02:26:23.300Z,939.52
2018-03-31T02:27:23.314Z,939.46
2018-03-31T02:28:23.331Z,939.42
2018-03-31T02:29:23.349Z,939.41
2018-03-31T02:30:23.363Z,939.38
2018-03-31T02:31:23.382Z,939.42
2018-03-31T02:32:23.398Z,939.4
2018-03-31T02:33:23.471Z,939.36
2018-03-31T02:34:23.428Z,939.36
2018-03-31T02:35:23.445Z,939.33
2018-03-31T02:36:23.465Z,939.33
2018-03-31T02:37:23.484Z,939.31
2018-03-31T02:38:23.493Z,939.28
2018-03-31T02:39:23.509Z,939.27
2018-03-31T02:40:23.527Z,939.28
2018-03-31T02:41:23.546Z,939.21
2018-03-31T02:42:23.556Z,939.19
2018-03-31T02:43:23.675Z,939.15
2018-03-31T02:44:23.589Z,939.13
2018-03-31T02:45:23.618Z,939.18
2018-03-31T02:46:23.627Z,939.19
2018-03-31T02:47:23.637Z,939.21
2018-03-31T02:48:23.702Z,939.25
2018-03-31T02:49:23.668Z,939.28
2018-03-31T02:50:23.684Z,939.25
2018-03-31T02:51:23.702Z,939.18
2018-03-31T02:52:23.716Z,939.14
2018-03-31T02:53:23.734Z,939.14
2018-03-31T02:54:23.747Z,939.17
2018-03-31T02:55:23.763Z,939.22
2018-03-31T02:56:23.779Z,939.23
2018-03-31T02:57:23.797Z,939.27
2018-03-31T02:58:23.812Z,939.26
2018-03-31T02:59:23.835Z,939.26
2018-03-31T03:00:23.843Z,939.28
2018-03-31T03:01:23.858Z,939.28
2018-03-31T03:02:23.875Z,939.35
2018-03-31T03:03:24.043Z,939.36
2018-03-31T03:04:23.904Z,939.38
2018-03-31T03:05:23.921Z,939.39
2018-03-31T03:06:23.936Z,939.5
2018-03-31T03:07:23.969Z,939.36
2018-03-31T03:08:23.968Z,939.43
2018-03-31T03:09:23.983Z,939.4
2018-03-31T03:10:24.000Z,939.45
2018-03-31T03:11:24.015Z,939.41
2018-03-31T03:12:24.031Z,939.41
2018-03-31T03:13:24.047Z,939.4
2018-03-31T03:14:24.064Z,939.39
2018-03-31T03:15:24.079Z,939.38
2018-03-31T03:16:24.094Z,939.4
2018-03-31T03:17:24.110Z,939.37
2018-03-31T03:18:24.177Z,939.44
2018-03-31T03:19:24.143Z,939.36
2018-03-31T03:20:24.158Z,939.35
2018-03-31T03:21:24.174Z,939.36
2018-03-31T03:22:24.208Z,939.3
2018-03-31T03:23:24.305Z,939.33
2018-03-31T03:24:24.226Z,939.26
2018-03-31T03:25:24.234Z,939.31
2018-03-31T03:26:24.251Z,939.23
2018-03-31T03:27:24.267Z,939.22
2018-03-31T03:28:24.283Z,939.23
2018-03-31T03:29:24.316Z,939.24
2018-03-31T03:30:24.315Z,939.2
2018-03-31T03:31:24.333Z,939.19
2018-03-31T03:32:24.349Z,939.19
2018-03-31T03:33:24.411Z,939.16
2018-03-31T03:34:24.377Z,939.13
2018-03-31T03:35:24.395Z,939.13
2018-03-31T03:36:24.411Z,939.13
2018-03-31T03:37:24.426Z,939.16
2018-03-31T03:38:24.446Z,939.16
2018-03-31T03:39:24.459Z,939.19
2018-03-31T03:40:24.476Z,939.19
2018-03-31T03:41:24.490Z,939.18
2018-03-31T03:42:24.508Z,939.27
2018-03-31T03:43:24.573Z,939.3
2018-03-31T03:44:24.538Z,939.2
2018-03-31T03:45:24.558Z,939.28
2018-03-31T03:46:24.583Z,939.26
2018-03-31T03:47:24.585Z,939.24
2018-03-31T03:48:24.603Z,939.26
2018-03-31T03:49:24.618Z,939.13
2018-03-31T03:50:24.634Z,939.16
2018-03-31T03:51:24.668Z,939.1
2018-03-31T03:52:24.667Z,939.07
2018-03-31T03:53:24.682Z,939.09
2018-03-31T03:54:24.697Z,939.11
2018-03-31T03:55:24.713Z,939.05
2018-03-31T03:56:24.728Z,939.05
2018-03-31T03:57:24.746Z,939.06
2018-03-31T03:58:24.811Z,939.07
2018-03-31T03:59:24.781Z,939.1
2018-03-31T04:00:24.791Z,939.1
2018-03-31T04:01:24.808Z,939.04
2018-03-31T04:02:24.823Z,939.11
2018-03-31T04:03:24.842Z,939.09
2018-03-31T04:04:24.856Z,939.06
2018-03-31T04:05:24.870Z,939.08
2018-03-31T04:06:24.887Z,939.07
2018-03-31T04:07:24.902Z,939.06
2018-03-31T04:08:24.918Z,939.07
2018-03-31T04:09:24.932Z,939.05
2018-03-31T04:10:24.950Z,938.99
2018-03-31T04:11:24.965Z,938.97
2018-03-31T04:12:24.980Z,938.97
2018-03-31T04:13:25.045Z,939.07
2018-03-31T04:14:25.011Z,939.08
2018-03-31T04:15:25.027Z,939.09
2018-03-31T04:16:25.046Z,939.11
2018-03-31T04:17:25.057Z,939.1
2018-03-31T04:18:25.077Z,939.11
2018-03-31T04:19:25.088Z,939.18
2018-03-31T04:20:25.103Z,939.17
2018-03-31T04:21:25.123Z,939.2
2018-03-31T04:22:25.142Z,939.24
2018-03-31T04:23:25.149Z,939.19
2018-03-31T04:24:25.185Z,939.28
2018-03-31T04:25:25.182Z,939.21
2018-03-31T04:26:25.196Z,939.22
2018-03-31T04:27:25.212Z,939.25
2018-03-31T04:28:25.278Z,939.17
2018-03-31T04:29:25.242Z,939.14
2018-03-31T04:30:25.257Z,939.24
2018-03-31T04:31:25.278Z,939.15
2018-03-31T04:32:25.288Z,939.21
2018-03-31T04:33:25.303Z,939.24
2018-03-31T04:34:25.319Z,939.22
2018-03-31T04:35:25.335Z,939.27
2018-03-31T04:36:25.351Z,939.29
2018-03-31T04:37:25.366Z,939.26
2018-03-31T04:38:25.382Z,939.31
2018-03-31T04:39:25.397Z,939.29
2018-03-31T04:40:25.413Z,939.27
2018-03-31T04:41:25.428Z,939.29
2018-03-31T04:42:25.448Z,939.27
2018-03-31T04:43:25.458Z,939.34
2018-03-31T04:44:25.475Z,939.37
2018-03-31T04:45:25.488Z,939.38
2018-03-31T04:46:25.503Z,939.41
2018-03-31T04:47:25.518Z,939.45
2018-03-31T04:48:25.583Z,939.42
2018-03-31T04:49:25.551Z,939.46
2018-03-31T04:50:25.565Z,939.45
2018-03-31T04:51:25.582Z,939.43
2018-03-31T04:52:25.595Z,939.43
2018-03-31T04:53:25.611Z,939.44
2018-03-31T04:54:25.676Z,939.49
2018-03-31T04:55:25.642Z,939.48
2018-03-31T04:56:25.656Z,939.52
2018-03-31T04:57:25.674Z,939.52
2018-03-31T04:58:25.689Z,939.53
2018-03-31T04:59:25.704Z,939.46
2018-03-31T05:00:25.723Z,939.45
2018-03-31T05:01:25.735Z,939.4
2018-03-31T05:02:25.750Z,939.36
2018-03-31T05:03:25.764Z,939.4
2018-03-31T05:04:25.784Z,939.34
2018-03-31T05:05:25.796Z,939.35
2018-03-31T05:06:25.813Z,939.28
2018-03-31T05:07:25.827Z,939.25
2018-03-31T05:08:25.842Z,939.25
2018-03-31T05:09:25.908Z,939.19
2018-03-31T05:10:25.873Z,939.14
2018-03-31T05:11:25.898Z,939.07
2018-03-31T05:12:25.904Z,939.01
2018-03-31T05:13:25.919Z,939.01
2018-03-31T05:14:25.934Z,938.95
2018-03-31T05:15:25.949Z,938.97
2018-03-31T05:16:25.965Z,939.08
2018-03-31T05:17:25.980Z,939.19
2018-03-31T05:18:25.995Z,939.33
2018-03-31T05:19:26.010Z,939.41
2018-03-31T05:20:26.025Z,939.43
2018-03-31T05:21:26.088Z,939.42
2018-03-31T05:22:26.055Z,939.38
2018-03-31T05:23:26.070Z,939.38
2018-03-31T05:24:26.141Z,939.28
2018-03-31T05:25:26.099Z,939.27
2018-03-31T05:26:26.175Z,939.34
2018-03-31T05:27:26.134Z,939.37
2018-03-31T05:28:26.146Z,939.38
2018-03-31T05:29:26.158Z,939.4
2018-03-31T05:30:26.175Z,939.42
2018-03-31T05:31:26.192Z,939.44
2018-03-31T05:32:26.207Z,939.44
2018-03-31T05:33:26.222Z,939.53
2018-03-31T05:34:26.238Z,939.45
2018-03-31T05:35:26.253Z,939.41
2018-03-31T05:36:26.266Z,939.43
2018-03-31T05:37:26.283Z,939.38
2018-03-31T05:38:26.295Z,939.35
2018-03-31T05:39:26.364Z,939.39
2018-03-31T05:40:26.325Z,939.42
2018-03-31T05:41:26.344Z,939.48
2018-03-31T05:42:26.355Z,939.51
2018-03-31T05:43:26.370Z,939.6
2018-03-31T05:44:26.435Z,939.62
2018-03-31T05:45:26.399Z,939.67
2018-03-31T05:46:26.415Z,939.7
2018-03-31T05:47:26.429Z,939.71
2018-03-31T05:48:26.444Z,939.77
2018-03-31T05:49:26.460Z,939.77
2018-03-31T05:50:26.475Z,939.8
2018-03-31T05:51:26.489Z,939.77
2018-03-31T05:52:26.504Z,939.74
2018-03-31T05:53:26.519Z,939.74
2018-03-31T05:54:26.533Z,939.66
2018-03-31T05:55:26.550Z,939.71
2018-03-31T05:56:26.567Z,939.7
2018-03-31T05:57:26.578Z,939.72
2018-03-31T05:58:26.594Z,939.71
2018-03-31T05:59:26.658Z,939.65
2018-03-31T06:00:26.622Z,939.68
2018-03-31T06:01:26.638Z,939.62
2018-03-31T06:02:26.654Z,939.64
2018-03-31T06:03:26.668Z,939.65
2018-03-31T06:04:26.681Z,939.66
2018-03-31T06:05:26.696Z,939.67
2018-03-31T06:06:26.722Z,939.69
2018-03-31T06:07:26.727Z,939.67
2018-03-31T06:08:26.741Z,939.62
2018-03-31T06:09:26.755Z,939.66
2018-03-31T06:10:26.771Z,939.62
2018-03-31T06:11:26.791Z,939.62
2018-03-31T06:12:26.800Z,939.65
2018-03-31T06:13:26.815Z,939.63
2018-03-31T06:14:26.884Z,939.62
2018-03-31T06:15:26.846Z,939.61
2018-03-31T06:16:26.873Z,939.56
2018-03-31T06:17:26.875Z,939.54
2018-03-31T06:18:26.892Z,939.56
2018-03-31T06:19:26.903Z,939.55
2018-03-31T06:20:26.919Z,939.57
2018-03-31T06:21:26.934Z,939.55
2018-03-31T06:22:26.949Z,939.55
2018-03-31T06:23:26.966Z,939.58
2018-03-31T06:24:27.080Z,939.57
2018-03-31T06:25:26.995Z,939.56
2018-03-31T06:26:27.009Z,939.53
2018-03-31T06:27:27.024Z,939.52
2018-03-31T06:28:27.039Z,939.56
2018-03-31T06:29:27.107Z,939.61
2018-03-31T06:30:27.069Z,939.58
2018-03-31T06:31:27.134Z,939.66
2018-03-31T06:32:27.098Z,939.64
2018-03-31T06:33:27.114Z,939.65
2018-03-31T06:34:27.130Z,939.63
2018-03-31T06:35:27.143Z,939.64
2018-03-31T06:36:27.159Z,939.66
2018-03-31T06:37:27.243Z,939.61
2018-03-31T06:38:27.188Z,939.6
2018-03-31T06:39:27.206Z,939.61
2018-03-31T06:40:27.220Z,939.65
2018-03-31T06:41:27.236Z,939.64
2018-03-31T06:42:27.249Z,939.59
2018-03-31T06:43:27.264Z,939.61
2018-03-31T06:44:27.328Z,939.63
2018-03-31T06:45:27.297Z,939.62
2018-03-31T06:46:27.315Z,939.61
2018-03-31T06:47:27.329Z,939.61
2018-03-31T06:48:27.341Z,939.63
2018-03-31T06:49:27.356Z,939.64
2018-03-31T06:50:27.371Z,939.61
2018-03-31T06:51:27.386Z,939.66
2018-03-31T06:52:27.401Z,939.63
2018-03-31T06:53:27.416Z,939.56
2018-03-31T06:54:27.430Z,939.58
2018-03-31T06:55:27.447Z,939.58
2018-03-31T06:56:27.461Z,939.57
2018-03-31T06:57:27.481Z,939.57
2018-03-31T06:58:27.491Z,939.55
2018-03-31T06:59:27.507Z,939.5
2018-03-31T07:00:27.522Z,939.49
2018-03-31T07:01:27.537Z,939.46
2018-03-31T07:02:27.612Z,939.42
2018-03-31T07:03:27.569Z,939.36
2018-03-31T07:04:27.582Z,939.32
2018-03-31T07:05:27.598Z,939.36
2018-03-31T07:06:27.612Z,939.43
2018-03-31T07:07:27.628Z,939.44
2018-03-31T07:08:27.670Z,939.5
2018-03-31T07:09:27.657Z,939.53
2018-03-31T07:10:27.674Z,939.57
2018-03-31T07:11:27.688Z,939.61
2018-03-31T07:12:27.704Z,939.64
2018-03-31T07:13:27.719Z,939.68
2018-03-31T07:14:27.733Z,939.68
2018-03-31T07:15:27.773Z,939.66
2018-03-31T07:16:27.762Z,939.72
2018-03-31T07:17:27.827Z,939.71
2018-03-31T07:18:27.791Z,939.67
2018-03-31T07:19:27.808Z,939.7
2018-03-31T07:20:27.827Z,939.72
2018-03-31T07:21:27.838Z,939.74
2018-03-31T07:22:27.853Z,939.74
2018-03-31T07:23:27.867Z,939.75
2018-03-31T07:24:27.882Z,939.76
2018-03-31T07:25:27.899Z,939.72
2018-03-31T07:26:27.915Z,939.79
2018-03-31T07:27:27.929Z,939.81
2018-03-31T07:28:27.944Z,939.78
2018-03-31T07:29:27.958Z,939.74
2018-03-31T07:30:27.974Z,939.74
2018-03-31T07:31:27.989Z,939.75
2018-03-31T07:32:28.054Z,939.69
2018-03-31T07:33:28.018Z,939.71
2018-03-31T07:34:28.034Z,939.66
2018-03-31T07:35:28.049Z,939.63
2018-03-31T07:36:28.067Z,939.58
2018-03-31T07:37:28.084Z,939.62
2018-03-31T07:38:28.095Z,939.64
2018-03-31T07:39:28.111Z,939.57
2018-03-31T07:40:28.126Z,939.58
2018-03-31T07:41:28.142Z,939.59
2018-03-31T07:42:28.156Z,939.55
2018-03-31T07:43:28.172Z,939.56
2018-03-31T07:44:28.185Z,939.6
2018-03-31T07:45:28.202Z,939.59
2018-03-31T07:46:28.218Z,939.61
2018-03-31T07:47:28.284Z,939.58
2018-03-31T07:48:28.247Z,939.58
2018-03-31T07:49:28.267Z,939.57
2018-03-31T07:50:28.279Z,939.58
2018-03-31T07:51:28.293Z,939.59
2018-03-31T07:52:28.308Z,939.6
2018-03-31T07:53:28.324Z,939.61
2018-03-31T07:54:28.345Z,939.61
2018-03-31T07:55:28.355Z,939.66
2018-03-31T07:56:28.371Z,939.63
2018-03-31T07:57:28.389Z,939.65
2018-03-31T07:58:28.403Z,939.62
2018-03-31T07:59:28.433Z,939.66
2018-03-31T08:00:28.446Z,939.6
2018-03-31T08:01:28.449Z,939.62
2018-03-31T08:02:28.514Z,939.63
2018-03-31T08:03:28.479Z,939.58
2018-03-31T08:04:28.494Z,939.63
2018-03-31T08:05:28.510Z,939.67
2018-03-31T08:06:28.526Z,939.6
2018-03-31T08:07:28.543Z,939.56
2018-03-31T08:08:28.561Z,939.64
2018-03-31T08:09:28.575Z,939.58
2018-03-31T08:10:28.590Z,939.6
2018-03-31T08:11:28.607Z,939.51
2018-03-31T08:12:28.627Z,939.55
2018-03-31T08:13:28.636Z,939.58
2018-03-31T08:14:28.653Z,939.54
2018-03-31T08:15:28.671Z,939.59
2018-03-31T08:16:28.687Z,939.55
2018-03-31T08:17:28.753Z,939.57
2018-03-31T08:18:28.717Z,939.52
2018-03-31T08:19:28.734Z,939.57
2018-03-31T08:20:28.757Z,939.57
2018-03-31T08:21:28.783Z,939.55
2018-03-31T08:22:28.782Z,939.55
2018-03-31T08:23:28.800Z,939.48
2018-03-31T08:24:28.815Z,939.5
2018-03-31T08:25:28.836Z,939.46
2018-03-31T08:26:28.848Z,939.43
2018-03-31T08:27:28.864Z,939.44
2018-03-31T08:28:28.880Z,939.41
2018-03-31T08:29:28.896Z,939.38
2018-03-31T08:30:28.945Z,939.38
2018-03-31T08:31:28.930Z,939.37
2018-03-31T08:32:28.997Z,939.37
2018-03-31T08:33:28.967Z,939.39
2018-03-31T08:34:28.980Z,939.38
2018-03-31T08:35:28.996Z,939.37
2018-03-31T08:36:29.014Z,939.37
2018-03-31T08:37:29.079Z,939.42
2018-03-31T08:38:29.046Z,939.38
2018-03-31T08:39:29.061Z,939.41
2018-03-31T08:40:29.089Z,939.38
2018-03-31T08:41:29.097Z,939.42
2018-03-31T08:42:29.114Z,939.39
2018-03-31T08:43:29.142Z,939.39
2018-03-31T08:44:29.147Z,939.35
2018-03-31T08:45:29.166Z,939.36
2018-03-31T08:46:29.182Z,939.36
2018-03-31T08:47:29.248Z,939.31
2018-03-31T08:48:29.219Z,939.33
2018-03-31T08:49:29.233Z,939.32
2018-03-31T08:50:29.251Z,939.32
2018-03-31T08:51:29.268Z,939.31
2018-03-31T08:52:29.283Z,939.34
2018-03-31T08:53:29.299Z,939.34
2018-03-31T08:54:29.320Z,939.31
2018-03-31T08:55:29.333Z,939.37
2018-03-31T08:56:29.351Z,939.34
2018-03-31T08:57:29.369Z,939.35
2018-03-31T08:58:29.385Z,939.32
2018-03-31T08:59:29.401Z,939.31
2018-03-31T09:00:29.420Z,939.28
2018-03-31T09:01:29.435Z,939.28
2018-03-31T09:02:29.501Z,939.26
2018-03-31T09:03:29.468Z,939.21
2018-03-31T09:04:29.484Z,939.2
2018-03-31T09:05:29.503Z,939.22
2018-03-31T09:06:29.515Z,939.23
2018-03-31T09:07:29.537Z,939.19
2018-03-31T09:08:29.548Z,939.22
2018-03-31T09:09:29.571Z,939.24
2018-03-31T09:10:29.582Z,939.22
2018-03-31T09:11:29.599Z,939.21
2018-03-31T09:12:29.615Z,939.26
2018-03-31T09:13:29.632Z,939.21
2018-03-31T09:14:29.651Z,939.27
2018-03-31T09:15:29.666Z,939.26
2018-03-31T09:16:29.683Z,939.19
2018-03-31T09:17:29.700Z,939.19
2018-03-31T09:18:29.718Z,939.18
2018-03-31T09:19:29.784Z,939.22
2018-03-31T09:20:29.767Z,939.19
2018-03-31T09:21:29.767Z,939.24
2018-03-31T09:22:29.783Z,939.22
2018-03-31T09:23:29.803Z,939.22
2018-03-31T09:24:29.816Z,939.21
2018-03-31T09:25:29.833Z,939.24
2018-03-31T09:26:29.849Z,939.2
2018-03-31T09:27:29.866Z,939.21
2018-03-31T09:28:29.883Z,939.19
2018-03-31T09:29:29.950Z,939.22
2018-03-31T09:30:29.916Z,939.22
2018-03-31T09:31:29.933Z,939.24
2018-03-31T09:32:29.949Z,939.18
2018-03-31T09:33:29.967Z,939.17
2018-03-31T09:34:29.985Z,939.16
2018-03-31T09:35:30.001Z,939.19
2018-03-31T09:36:30.020Z,939.21
2018-03-31T09:37:30.035Z,939.23
2018-03-31T09:38:30.054Z,939.24
2018-03-31T09:39:30.109Z,939.25
2018-03-31T09:40:30.089Z,939.25
2018-03-31T09:41:30.106Z,939.23
2018-03-31T09:42:30.123Z,939.29
2018-03-31T09:43:30.140Z,939.26
2018-03-31T09:44:30.215Z,939.26
2018-03-31T09:45:30.180Z,939.3
2018-03-31T09:46:30.193Z,939.3
2018-03-31T09:47:30.210Z,939.29
2018-03-31T09:48:30.225Z,939.32
2018-03-31T09:49:30.244Z,939.29
2018-03-31T09:50:30.262Z,939.3
2018-03-31T09:51:30.280Z,939.32
2018-03-31T09:52:30.297Z,939.3
2018-03-31T09:53:30.315Z,939.34
2018-03-31T09:54:30.332Z,939.35
2018-03-31T09:55:30.351Z,939.4
2018-03-31T09:56:30.370Z,939.42
2018-03-31T09:57:30.403Z,939.45
2018-03-31T09:58:30.404Z,939.46
2018-03-31T09:59:30.471Z,939.46
2018-03-31T10:00:30.439Z,939.44
2018-03-31T10:01:30.453Z,939.52
2018-03-31T10:02:30.472Z,939.51
2018-03-31T10:03:30.487Z,939.45
2018-03-31T10:04:30.506Z,939.44
2018-03-31T10:05:30.524Z,939.41
2018-03-31T10:06:30.546Z,939.39
2018-03-31T10:07:30.564Z,939.38
2018-03-31T10:08:30.585Z,939.38
2018-03-31T10:09:30.597Z,939.37
2018-03-31T10:10:30.615Z,939.4
2018-03-31T10:11:30.633Z,939.39
2018-03-31T10:12:30.664Z,939.42
2018-03-31T10:13:30.669Z,939.42
2018-03-31T10:14:30.736Z,939.44
2018-03-31T10:15:30.704Z,939.42
2018-03-31T10:16:30.721Z,939.42
2018-03-31T10:17:30.943Z,939.45
2018-03-31T10:18:30.758Z,939.45
2018-03-31T10:19:30.779Z,939.45
2018-03-31T10:20:30.795Z,939.39
2018-03-31T10:21:30.813Z,939.39
2018-03-31T10:22:30.866Z,939.43
2018-03-31T10:23:30.849Z,939.44
2018-03-31T10:24:30.867Z,939.42
2018-03-31T10:25:30.884Z,939.42
2018-03-31T10:26:30.902Z,939.45
2018-03-31T10:27:30.921Z,939.43
2018-03-31T10:28:30.937Z,939.41
2018-03-31T10:29:31.004Z,939.44
2018-03-31T10:30:30.973Z,939.39
2018-03-31T10:31:30.992Z,939.4
2018-03-31T10:32:31.009Z,939.34
2018-03-31T10:33:31.027Z,939.32
2018-03-31T10:34:31.051Z,939.33
2018-03-31T10:35:31.063Z,939.32
2018-03-31T10:36:31.148Z,939.31
2018-03-31T10:37:31.098Z,939.32
2018-03-31T10:38:31.120Z,939.34
2018-03-31T10:39:31.137Z,939.31
2018-03-31T10:40:31.152Z,939.27
2018-03-31T10:41:31.175Z,939.26
2018-03-31T10:42:31.186Z,939.23
2018-03-31T10:43:31.204Z,939.25
2018-03-31T10:44:31.273Z,939.27
2018-03-31T10:45:31.241Z,939.26
2018-03-31T10:46:31.259Z,939.25
2018-03-31T10:47:31.331Z,939.22
2018-03-31T10:48:31.297Z,939.22
2018-03-31T10:49:31.320Z,939.21
2018-03-31T10:50:31.331Z,939.21
2018-03-31T10:51:31.351Z,939.22
2018-03-31T10:52:31.370Z,939.21
2018-03-31T10:53:31.389Z,939.15
2018-03-31T10:54:31.404Z,939.19
2018-03-31T10:55:31.425Z,939.17
2018-03-31T10:56:31.441Z,939.18
2018-03-31T10:57:31.460Z,939.16
2018-03-31T10:58:31.478Z,939.19
2018-03-31T10:59:31.497Z,939.2
2018-03-31T11:00:31.515Z,939.18
2018-03-31T11:01:31.582Z,939.19
2018-03-31T11:02:31.551Z,939.19
2018-03-31T11:03:31.571Z,939.23
2018-03-31T11:04:31.605Z,939.27
2018-03-31T11:05:31.620Z,939.25
2018-03-31T11:06:31.626Z,939.22
2018-03-31T11:07:31.645Z,939.23
2018-03-31T11:08:31.664Z,939.25
2018-03-31T11:09:31.682Z,939.2
2018-03-31T11:10:31.703Z,939.22
2018-03-31T11:11:31.721Z,939.22
2018-03-31T11:12:31.740Z,939.19
2018-03-31T11:13:31.759Z,939.19
2018-03-31T11:14:31.778Z,939.19
2018-03-31T11:15:31.798Z,939.16
2018-03-31T11:16:31.867Z,939.19
2018-03-31T11:17:31.837Z,939.18
2018-03-31T11:18:31.862Z,939.22
2018-03-31T11:19:31.890Z,939.24
2018-03-31T11:20:31.897Z,939.2
2018-03-31T11:21:31.916Z,939.17
2018-03-31T11:22:31.938Z,939.2
2018-03-31T11:23:31.958Z,939.24
2018-03-31T11:24:31.977Z,939.19
2018-03-31T11:25:31.997Z,939.21
2018-03-31T11:26:32.018Z,939.21
2018-03-31T11:27:32.039Z,939.22
2018-03-31T11:28:32.059Z,939.23
2018-03-31T11:29:32.080Z,939.26
2018-03-31T11:30:32.103Z,939.23
2018-03-31T11:31:32.173Z,939.28
2018-03-31T11:32:32.145Z,939.19
2018-03-31T11:33:32.167Z,939.15
2018-03-31T11:34:32.191Z,939.18
2018-03-31T11:35:32.212Z,939.17
2018-03-31T11:36:32.233Z,939.2
2018-03-31T11:37:32.257Z,939.19
2018-03-31T11:38:32.278Z,939.21
2018-03-31T11:39:32.301Z,939.22
2018-03-31T11:40:32.326Z,939.24
2018-03-31T11:41:32.353Z,939.25
2018-03-31T11:42:32.370Z,939.28
2018-03-31T11:43:32.390Z,939.28
2018-03-31T11:44:32.414Z,939.26
2018-03-31T11:45:32.436Z,939.21
2018-03-31T11:46:32.508Z,939.17
2018-03-31T11:47:32.481Z,939.15
2018-03-31T11:48:32.503Z,939.13
2018-03-31T11:49:32.526Z,939.12
2018-03-31T11:50:32.549Z,939.11
2018-03-31T11:51:32.573Z,939.07
2018-03-31T11:52:32.593Z,939.06
2018-03-31T11:53:32.615Z,939.02
2018-03-31T11:54:32.638Z,938.99
2018-03-31T11:55:32.659Z,938.99
2018-03-31T11:56:32.680Z,939
2018-03-31T11:57:32.703Z,938.96
2018-03-31T11:58:32.725Z,938.93
2018-03-31T11:59:32.748Z,938.9
2018-03-31T12:00:32.767Z,938.86
2018-03-31T12:01:32.838Z,938.86
2018-03-31T12:02:32.810Z,938.82
2018-03-31T12:03:32.830Z,938.83
2018-03-31T12:04:32.852Z,938.82
2018-03-31T12:05:32.894Z,938.79
2018-03-31T12:06:32.894Z,938.83
2018-03-31T12:07:32.915Z,938.83
2018-03-31T12:08:32.934Z,938.85
2018-03-31T12:09:32.954Z,938.88
2018-03-31T12:10:32.977Z,938.91
2018-03-31T12:11:32.996Z,938.96
2018-03-31T12:12:33.018Z,938.93
2018-03-31T12:13:33.038Z,938.89
2018-03-31T12:14:33.057Z,938.82
2018-03-31T12:15:33.079Z,938.82
2018-03-31T12:16:33.149Z,938.83
2018-03-31T12:17:33.120Z,938.86
2018-03-31T12:18:33.138Z,938.82
2018-03-31T12:19:33.161Z,938.81
2018-03-31T12:20:33.181Z,938.83
2018-03-31T12:21:33.201Z,938.84
2018-03-31T12:22:33.222Z,938.83
2018-03-31T12:23:33.242Z,938.84
2018-03-31T12:24:33.263Z,938.79
2018-03-31T12:25:33.285Z,938.85
2018-03-31T12:26:33.306Z,938.84
2018-03-31T12:27:33.327Z,938.82
2018-03-31T12:28:33.348Z,938.78
2018-03-31T12:29:33.370Z,938.82
2018-03-31T12:30:33.391Z,938.79
2018-03-31T12:31:33.462Z,938.85
2018-03-31T12:32:33.434Z,938.82